M I D A S
Marine Information and Data Acquisition System
Tripno 885 of the Zeeleeuw from 2005-04-22 07:21:10 to 2005-04-22 12:43:49
Back to CruiseResearch ActivitiesStationsMapUnderway DataData graphs

EquipmentUnitsComment
TimeDGPSUTC
LatitudeDGPSDM.mWGS84
LongitudeDGPSDM.mWGS84
HeadingGyrodeg 
SOGDGPSknotsSpeed over ground
COGDGPSdegCourse over ground
DepthEcho soundermeters200 kHz
Missing or incorrect values are displayed as -999
Navigation data collected by the RV Zeeleeuw from 2005-04-22 07:20:42 to 2005-04-22 12:55:07
                                                                                    Next 1000 lines
Time Latitude Longitude Heading SOG COG Depth
2005-04-22 07:20:51 51°13.595 2°56.101 114.9 0.3 275 6.5
2005-04-22 07:20:57 51°13.595 2°56.099 114.5 0.6 292 6.4
2005-04-22 07:21:01 51°13.596 2°56.096 114.4 1.2 287 6.4
2005-04-22 07:21:07 51°13.597 2°56.092 114.7 1.2 287 6.5
2005-04-22 07:21:11 51°13.598 2°56.088 115.4 2.1 296 6.7
2005-04-22 07:21:18 51°13.6 2°56.081 116.3 2.5 295 -999
2005-04-22 07:21:22 51°13.602 2°56.076 116.4 2.5 295 -999
2005-04-22 07:21:28 51°13.604 2°56.069 115.4 2.5 295 -999
2005-04-22 07:21:32 51°13.605 2°56.062 114.6 2.5 295 -999
2005-04-22 07:21:38 51°13.607 2°56.054 113.5 3.6 292 -999
2005-04-22 07:21:42 51°13.609 2°56.046 112.9 3.6 292 -999
2005-04-22 07:21:47 51°13.611 2°56.037 112.7 4 290 -999
2005-04-22 07:21:53 51°13.613 2°56.027 113.1 4.3 289 -999
2005-04-22 07:21:58 51°13.615 2°56.018 114.3 4.5 290 -999
2005-04-22 07:22:01 51°13.617 2°56.012 115.8 4.7 291 -999
2005-04-22 07:22:07 51°13.62 2°55.999 117.5 4.8 292 -999
2005-04-22 07:22:13 51°13.624 2°55.988 118.8 4.8 292 -999
2005-04-22 07:22:18 51°13.627 2°55.978 119.6 5.1 295 -999
2005-04-22 07:22:22 51°13.629 2°55.969 120.3 5.4 296 -999
2005-04-22 07:22:27 51°13.633 2°55.957 121.4 5.4 296 -999
2005-04-22 07:22:32 51°13.637 2°55.946 122.6 5.5 297 -999
2005-04-22 07:22:38 51°13.641 2°55.935 123.5 5.5 301 -999
2005-04-22 07:22:42 51°13.644 2°55.927 124.5 5.5 300 -999
2005-04-22 07:22:47 51°13.648 2°55.915 124.8 5.4 301 -999
2005-04-22 07:22:52 51°13.652 2°55.906 124.8 5.4 301 -999
2005-04-22 07:22:58 51°13.656 2°55.895 124.8 5.2 302 -999
2005-04-22 07:23:02 51°13.66 2°55.885 124.4 5.2 302 -999
2005-04-22 07:23:07 51°13.663 2°55.876 123.8 5.1 301 -999
2005-04-22 07:23:12 51°13.667 2°55.866 123.2 5 301 -999
2005-04-22 07:23:17 51°13.67 2°55.858 122.4 4.9 300 -999
2005-04-22 07:23:23 51°13.674 2°55.847 121.2 4.9 300 -999
2005-04-22 07:23:27 51°13.676 2°55.838 120 4.8 299 -999
2005-04-22 07:23:33 51°13.68 2°55.828 118.6 4.8 298 -999
2005-04-22 07:23:37 51°13.682 2°55.82 117.1 4.8 297 -999
2005-04-22 07:23:42 51°13.685 2°55.809 115.4 4.9 294 -999
2005-04-22 07:23:47 51°13.687 2°55.8 113.6 4.9 294 -999
2005-04-22 07:23:52 51°13.689 2°55.79 112.2 4.4 290 -999
2005-04-22 07:23:58 51°13.691 2°55.782 110.8 4.3 290 -999
2005-04-22 07:24:01 51°13.692 2°55.776 109.7 3.8 290 -999
2005-04-22 07:24:08 51°13.694 2°55.768 108 3.8 290 -999
2005-04-22 07:24:12 51°13.695 2°55.765 105.1 2.4 289 11.3
2005-04-22 07:24:17 51°13.696 2°55.763 101.9 2.4 289 11.3
2005-04-22 07:24:22 51°13.696 2°55.763 97.9 0.5 356 -999
2005-04-22 07:24:27 51°13.697 2°55.765 93.1 0.7 53 -999
2005-04-22 07:24:32 51°13.698 2°55.767 84.1 0.7 53 11.3
2005-04-22 07:24:37 51°13.698 2°55.767 76.9 0.7 35 11.4
2005-04-22 07:24:42 51°13.698 2°55.767 72.5 0.1 44 11.4
2005-04-22 07:24:47 51°13.698 2°55.765 68.7 0.4 293 11.4
2005-04-22 07:24:51 51°13.698 2°55.763 65.8 0.8 253 11.4
2005-04-22 07:24:56 51°13.697 2°55.76 63.3 1.4 251 11.4
2005-04-22 07:25:01 51°13.696 2°55.757 61.2 1.6 244 11.4
2005-04-22 07:25:07 51°13.695 2°55.753 59 1.6 244 11.4
2005-04-22 07:25:12 51°13.694 2°55.749 57 1.6 244 -999
2005-04-22 07:25:17 51°13.693 2°55.746 54.7 1.8 242 -999
2005-04-22 07:25:22 51°13.691 2°55.742 52.8 1.7 240 -999
2005-04-22 07:25:28 51°13.691 2°55.741 51.5 1.2 242 -999
2005-04-22 07:25:31 51°13.691 2°55.74 47.9 0.3 322 -999
2005-04-22 07:25:37 51°13.693 2°55.741 41.6 0.6 355 -999
2005-04-22 07:25:42 51°13.696 2°55.743 31.8 1.9 18 -999
2005-04-22 07:25:47 51°13.7 2°55.743 23.9 2.5 8 -999
2005-04-22 07:25:52 51°13.705 2°55.743 13.7 3.4 2 -999
2005-04-22 07:25:57 51°13.71 2°55.742 3.6 3.4 2 -999
2005-04-22 07:26:02 51°13.715 2°55.739 355.4 3.9 348 -999
2005-04-22 07:26:07 51°13.72 2°55.736 345.3 3.9 348 11.4
2005-04-22 07:26:12 51°13.725 2°55.732 341.8 3.9 348 10.7
2005-04-22 07:26:17 51°13.73 2°55.726 337.6 4.3 333 10.6
2005-04-22 07:26:22 51°13.737 2°55.72 333.3 5 328 9.8
2005-04-22 07:26:27 51°13.743 2°55.714 331.6 5.4 327 9.1
2005-04-22 07:26:32 51°13.75 2°55.707 331.6 5.9 328 9.1
2005-04-22 07:26:37 51°13.757 2°55.699 331.6 5.9 328 9.1
2005-04-22 07:26:41 51°13.763 2°55.693 331.6 6.4 329 9.3
2005-04-22 07:26:47 51°13.773 2°55.684 332 6.8 329 9.2
2005-04-22 07:26:51 51°13.78 2°55.677 332.4 6.8 329 9.2
2005-04-22 07:26:56 51°13.789 2°55.668 333.1 7.2 330 9.1
2005-04-22 07:27:01 51°13.797 2°55.661 333.7 7.4 330 9.3
2005-04-22 07:27:07 51°13.808 2°55.651 334.4 7.5 330 9.2
2005-04-22 07:27:12 51°13.817 2°55.643 335 7.5 330 9.4
2005-04-22 07:27:17 51°13.827 2°55.635 336 7.5 330 9.5
2005-04-22 07:27:21 51°13.835 2°55.628 336.7 7.9 332 9.4
2005-04-22 07:27:27 51°13.847 2°55.618 336.8 8.2 333 9.3
2005-04-22 07:27:31 51°13.856 2°55.611 336.8 8.2 333 9.2
2005-04-22 07:27:37 51°13.867 2°55.601 337.2 8.4 333 9.3
2005-04-22 07:27:42 51°13.879 2°55.594 338 8.5 335 9.2
2005-04-22 07:27:47 51°13.888 2°55.586 338.8 8.5 334 9.2
2005-04-22 07:27:51 51°13.898 2°55.579 339.2 8.5 334 9.2
2005-04-22 07:27:57 51°13.91 2°55.57 339.6 8.6 335 9.1
2005-04-22 07:28:01 51°13.918 2°55.563 339.6 8.6 334 9.4
2005-04-22 07:28:07 51°13.932 2°55.553 340.1 8.6 334 9.2
2005-04-22 07:28:12 51°13.942 2°55.545 340.4 8.6 334 9.4
2005-04-22 07:28:16 51°13.952 2°55.539 340.3 8.5 335 9.5
2005-04-22 07:28:21 51°13.962 2°55.532 340.1 8.5 335 9.5
2005-04-22 07:28:27 51°13.975 2°55.522 340.2 8.4 335 9.5
2005-04-22 07:28:32 51°13.986 2°55.514 340.4 8.2 335 9.4
2005-04-22 07:28:37 51°13.995 2°55.508 340.2 8.2 335 9.3
2005-04-22 07:28:41 51°14.004 2°55.502 340.4 8.3 336 9.2
2005-04-22 07:28:47 51°14.017 2°55.492 340.8 8.1 336 9.1
2005-04-22 07:28:51 51°14.025 2°55.486 340.7 8.1 336 8.9
2005-04-22 07:28:57 51°14.036 2°55.478 340.4 8.1 336 8.9
2005-04-22 07:29:02 51°14.045 2°55.472 340.3 8 336 8.8
2005-04-22 07:29:07 51°14.056 2°55.464 340.4 8 336 8.7
2005-04-22 07:29:12 51°14.066 2°55.457 341.1 7.9 336 9
2005-04-22 07:29:16 51°14.075 2°55.45 341.1 7.9 336 9
2005-04-22 07:29:21 51°14.085 2°55.444 341 8.1 336 9
2005-04-22 07:29:27 51°14.097 2°55.434 340.7 8.2 336 9
2005-04-22 07:29:31 51°14.107 2°55.428 340.8 8.4 336 9
2005-04-22 07:29:37 51°14.119 2°55.42 341.1 8.5 336 9.2
2005-04-22 07:29:42 51°14.129 2°55.412 341 8.6 336 9.3
2005-04-22 07:29:47 51°14.142 2°55.404 340.2 8.6 336 9.8
2005-04-22 07:29:51 51°14.152 2°55.395 339 8.9 334 9.6
2005-04-22 07:29:57 51°14.164 2°55.385 337.8 8.9 333 10.3
2005-04-22 07:30:01 51°14.172 2°55.377 336.6 8.9 332 10
2005-04-22 07:30:07 51°14.186 2°55.364 334.5 9.1 329 10.8
2005-04-22 07:30:11 51°14.193 2°55.356 332.7 9.1 327 10.3
2005-04-22 07:30:17 51°14.206 2°55.341 329.6 9.2 324 10
2005-04-22 07:30:22 51°14.216 2°55.328 327.8 9.3 323 9.9
2005-04-22 07:30:27 51°14.226 2°55.315 326.5 9.3 320 10
2005-04-22 07:30:31 51°14.234 2°55.303 324.8 9.3 319 10.9
2005-04-22 07:30:37 51°14.245 2°55.287 323.1 9.3 319 10.3
2005-04-22 07:30:42 51°14.254 2°55.273 321.6 9.4 316 10
2005-04-22 07:30:47 51°14.264 2°55.257 320 9.3 315 10.1
2005-04-22 07:30:51 51°14.271 2°55.245 318.9 9.3 315 10.1
2005-04-22 07:30:57 51°14.281 2°55.228 317.9 9.4 313 10
2005-04-22 07:31:01 51°14.287 2°55.215 316.8 9.4 311 9.9
2005-04-22 07:31:07 51°14.297 2°55.195 314.5 9.4 308 9.7
2005-04-22 07:31:11 51°14.305 2°55.18 312.8 9.7 308 10
2005-04-22 07:31:17 51°14.314 2°55.161 312.7 9.9 308 10.1
2005-04-22 07:31:20 51°14.321 2°55.148 312.8 10.3 308 10.2
2005-04-22 07:31:27 51°14.332 2°55.124 312.9 10.3 308 10.1
2005-04-22 07:31:32 51°14.341 2°55.105 311.9 10.8 307 10
2005-04-22 07:31:37 51°14.351 2°55.086 311.5 11 308 9.9
2005-04-22 07:31:41 51°14.358 2°55.07 311.1 11.3 306 9.7
2005-04-22 07:31:47 51°14.369 2°55.045 310.9 11.3 306 9.8
2005-04-22 07:31:51 51°14.377 2°55.026 310.7 11.5 305 9.8
2005-04-22 07:31:57 51°14.387 2°55.002 309.9 11.6 305 9.8
2005-04-22 07:32:01 51°14.394 2°54.984 309 11.8 302 9.8
2005-04-22 07:32:07 51°14.405 2°54.958 308.7 12 303 9.8
2005-04-22 07:32:11 51°14.413 2°54.938 309 12.1 303 9.9
2005-04-22 07:32:17 51°14.424 2°54.913 309.9 12.1 303 10
2005-04-22 07:32:22 51°14.433 2°54.892 311.1 12.5 305 10
2005-04-22 07:32:27 51°14.445 2°54.864 311.3 12.6 305 10
2005-04-22 07:32:31 51°14.451 2°54.843 309.3 13 300 10.1
2005-04-22 07:32:37 51°14.46 2°54.814 306.2 13.1 296 10
2005-04-22 07:32:41 51°14.465 2°54.792 302 13.2 294 9.9
2005-04-22 07:32:47 51°14.472 2°54.758 297.7 13.3 291 10
2005-04-22 07:32:51 51°14.475 2°54.732 292.5 13.4 286 9.9
2005-04-22 07:32:57 51°14.48 2°54.7 289.6 13.4 286 10
2005-04-22 07:33:01 51°14.482 2°54.676 287.4 13.6 281 9.9
2005-04-22 07:33:07 51°14.485 2°54.636 284.6 13.7 278 9.9
2005-04-22 07:33:11 51°14.486 2°54.612 282.4 13.8 274 9.8
2005-04-22 07:33:17 51°14.487 2°54.578 279.6 13.8 274 9.9
2005-04-22 07:33:21 51°14.486 2°54.554 276.5 13.9 269 10
2005-04-22 07:33:27 51°14.484 2°54.517 272.9 14 267 9.9
2005-04-22 07:33:32 51°14.482 2°54.483 271.1 14 265 9.9
2005-04-22 07:33:37 51°14.481 2°54.455 269.6 14 265 9.9
2005-04-22 07:33:42 51°14.479 2°54.427 269 14 264 9.8
2005-04-22 07:33:46 51°14.476 2°54.396 268.6 14 263 9.9
2005-04-22 07:33:51 51°14.474 2°54.369 267.8 14.1 261 9.9
2005-04-22 07:33:57 51°14.469 2°54.332 264.7 14.1 261 9.8
2005-04-22 07:34:02 51°14.464 2°54.302 262.7 14.1 261 9.7
2005-04-22 07:34:07 51°14.457 2°54.269 260.4 14 256 9.5
2005-04-22 07:34:11 51°14.453 2°54.245 258.4 14 256 9.3
2005-04-22 07:34:17 51°14.446 2°54.213 256.6 14.1 251 9.1
2005-04-22 07:34:21 51°14.441 2°54.189 255.3 14.1 250 9.1
2005-04-22 07:34:27 51°14.432 2°54.154 254 14.1 250 9.2
2005-04-22 07:34:32 51°14.425 2°54.124 253.5 14.2 249 9.1
2005-04-22 07:34:37 51°14.418 2°54.095 253.4 14.2 249 9.3
2005-04-22 07:34:42 51°14.41 2°54.066 252.7 14.3 248 9.1
2005-04-22 07:34:47 51°14.402 2°54.038 251.5 14.3 245 9.2
2005-04-22 07:34:51 51°14.393 2°54.012 248.2 14.3 242 9.1
2005-04-22 07:34:56 51°14.383 2°53.985 245.6 14.4 242 9.1
2005-04-22 07:35:01 51°14.373 2°53.961 243.3 14.4 238 9.1
2005-04-22 07:35:07 51°14.361 2°53.928 241.3 14.4 238 9.1
2005-04-22 07:35:12 51°14.35 2°53.901 240.8 14.4 238 9.2
2005-04-22 07:35:16 51°14.34 2°53.877 240.2 14.4 238 9.2
2005-04-22 07:35:22 51°14.33 2°53.849 240.6 14.4 238 9.1
2005-04-22 07:35:27 51°14.317 2°53.817 241 14.5 238 9.1
2005-04-22 07:35:31 51°14.31 2°53.795 241.6 14.5 240 9.1
2005-04-22 07:35:37 51°14.298 2°53.765 242.3 14.5 240 9.1
2005-04-22 07:35:42 51°14.289 2°53.739 243.1 14.5 241 9.1
2005-04-22 07:35:47 51°14.279 2°53.709 243.6 14.5 240 9.1
2005-04-22 07:35:51 51°14.27 2°53.684 243.8 14.5 241 9.1
2005-04-22 07:35:56 51°14.26 2°53.656 244.3 14.5 241 9.1
2005-04-22 07:36:02 51°14.249 2°53.625 243.9 14.4 241 9.1
2005-04-22 07:36:07 51°14.238 2°53.595 243.7 14.4 241 9.1
2005-04-22 07:36:11 51°14.229 2°53.573 243.6 14.5 240 9
2005-04-22 07:36:17 51°14.219 2°53.542 242.9 14.5 240 9.1
2005-04-22 07:36:22 51°14.209 2°53.516 242.6 14.5 240 9
2005-04-22 07:36:27 51°14.198 2°53.486 242.6 14.6 240 9.1
2005-04-22 07:36:31 51°14.189 2°53.461 242.7 14.6 240 9.2
2005-04-22 07:36:38 51°14.177 2°53.426 243 14.6 240 9.2
2005-04-22 07:36:42 51°14.169 2°53.404 243.8 14.6 241 9.2
2005-04-22 07:36:47 51°14.158 2°53.372 243.8 14.6 241 9.2
2005-04-22 07:36:51 51°14.149 2°53.347 244.5 14.7 242 9.2
2005-04-22 07:36:57 51°14.139 2°53.316 244.6 14.7 241 9.2
2005-04-22 07:37:01 51°14.131 2°53.293 244.8 14.7 242 9.3
2005-04-22 07:37:07 51°14.119 2°53.256 244.9 14.7 242 9.4
2005-04-22 07:37:11 51°14.111 2°53.236 244.8 14.7 242 9.3
2005-04-22 07:37:17 51°14.1 2°53.202 244.5 14.8 241 9.4
2005-04-22 07:37:22 51°14.09 2°53.173 244.7 14.7 241 9.4
2005-04-22 07:37:27 51°14.08 2°53.145 244.5 14.7 242 9.4
2005-04-22 07:37:31 51°14.071 2°53.119 244.6 14.7 241 9.4
2005-04-22 07:37:37 51°14.061 2°53.088 245 14.7 241 9.5
2005-04-22 07:37:42 51°14.052 2°53.061 244.8 14.8 241 9.5
2005-04-22 07:37:47 51°14.041 2°53.031 244.9 14.7 242 9.6
2005-04-22 07:37:51 51°14.032 2°53.004 245 14.7 242 9.7
2005-04-22 07:37:57 51°14.022 2°52.973 245.4 14.8 242 9.6
2005-04-22 07:38:02 51°14.013 2°52.946 245.6 14.8 241 9.7
2005-04-22 07:38:07 51°14.003 2°52.915 245.2 14.8 242 9.8
2005-04-22 07:38:12 51°13.993 2°52.886 245.6 14.7 243 9.8
2005-04-22 07:38:17 51°13.984 2°52.857 245.4 14.7 243 9.9
2005-04-22 07:38:21 51°13.976 2°52.834 245.6 14.8 242 9.9
2005-04-22 07:38:27 51°13.965 2°52.799 246 14.8 242 9.9
2005-04-22 07:38:32 51°13.955 2°52.77 246 14.7 243 9.9
2005-04-22 07:38:37 51°13.946 2°52.741 246.5 14.7 243 9.9
2005-04-22 07:38:41 51°13.939 2°52.718 247.1 14.7 244 10
2005-04-22 07:38:47 51°13.927 2°52.679 246.6 14.8 243 9.9
2005-04-22 07:38:51 51°13.92 2°52.656 246.9 14.8 243 10
2005-04-22 07:38:57 51°13.909 2°52.624 247.2 14.7 244 10
2005-04-22 07:39:01 51°13.902 2°52.601 247 14.8 244 10
2005-04-22 07:39:07 51°13.89 2°52.563 247.3 14.7 243 10
2005-04-22 07:39:12 51°13.882 2°52.536 246.6 14.7 243 10
2005-04-22 07:39:17 51°13.873 2°52.507 247.2 14.7 243 10.1
2005-04-22 07:39:22 51°13.863 2°52.478 246.8 14.8 243 10.1
2005-04-22 07:39:27 51°13.854 2°52.449 246.8 14.8 243 10.1
2005-04-22 07:39:32 51°13.845 2°52.42 246.6 14.8 243 10.1
2005-04-22 07:39:37 51°13.835 2°52.391 246.5 14.8 243 10.1
2005-04-22 07:39:42 51°13.825 2°52.359 246.4 14.8 244 10.1
2005-04-22 07:39:47 51°13.816 2°52.33 246.9 14.8 242 10.2
2005-04-22 07:39:51 51°13.809 2°52.306 246.7 14.8 244 10.2
2005-04-22 07:39:57 51°13.799 2°52.274 247.5 14.7 244 10.1
2005-04-22 07:40:01 51°13.792 2°52.251 247.3 14.7 244 10.2
2005-04-22 07:40:07 51°13.781 2°52.216 247.3 14.7 244 10.2
2005-04-22 07:40:12 51°13.77 2°52.183 247.3 14.7 244 10.2
2005-04-22 07:40:17 51°13.762 2°52.157 247.5 14.9 244 10.2
2005-04-22 07:40:21 51°13.755 2°52.134 247.2 14.8 243 10.2
2005-04-22 07:40:27 51°13.743 2°52.096 247.3 14.8 244 10.2
2005-04-22 07:40:32 51°13.735 2°52.07 247.4 14.7 244 10.2
2005-04-22 07:40:37 51°13.725 2°52.041 247 14.7 243 10.3
2005-04-22 07:40:42 51°13.717 2°52.014 246.1 14.7 243 10.3
2005-04-22 07:40:47 51°13.706 2°51.984 245.5 14.7 241 10.2
2005-04-22 07:40:52 51°13.695 2°51.952 244.9 14.7 243 10.3
2005-04-22 07:40:57 51°13.687 2°51.926 245.3 14.8 241 10.4
2005-04-22 07:41:02 51°13.677 2°51.897 245.3 14.8 243 10.3
2005-04-22 07:41:07 51°13.667 2°51.868 245 14.8 241 10.3
2005-04-22 07:41:11 51°13.66 2°51.845 245 14.8 243 10.4
2005-04-22 07:41:18 51°13.647 2°51.807 245.2 14.8 241 10.5
2005-04-22 07:41:21 51°13.64 2°51.788 245.3 14.9 242 10.4
2005-04-22 07:41:27 51°13.628 2°51.75 245.3 14.7 241 10.4
2005-04-22 07:41:31 51°13.62 2°51.728 245 14.8 242 10.4
2005-04-22 07:41:37 51°13.609 2°51.696 245.2 14.7 242 10.5
2005-04-22 07:41:42 51°13.599 2°51.664 245 14.8 241 10.4
2005-04-22 07:41:47 51°13.588 2°51.636 244.8 14.8 241 10.5
2005-04-22 07:41:52 51°13.579 2°51.611 244.2 14.7 240 10.5
2005-04-22 07:41:57 51°13.569 2°51.582 243 14.8 239 10.5
2005-04-22 07:42:02 51°13.559 2°51.557 242.9 14.8 239 10.6
2005-04-22 07:42:07 51°13.546 2°51.524 242 14.8 238 10.6
2005-04-22 07:42:11 51°13.538 2°51.502 241.6 14.8 238 10.5
2005-04-22 07:42:17 51°13.526 2°51.47 241.6 14.8 238 10.6
2005-04-22 07:42:22 51°13.516 2°51.445 242 14.9 240 10.5
2005-04-22 07:42:27 51°13.505 2°51.415 241.8 14.8 239 10.6
2005-04-22 07:42:32 51°13.493 2°51.384 242 14.8 238 10.5
2005-04-22 07:42:37 51°13.484 2°51.359 241.8 14.8 238 10.5
2005-04-22 07:42:42 51°13.472 2°51.329 242 14.8 238 10.6
2005-04-22 07:42:47 51°13.463 2°51.303 241.8 14.8 238 10.6
2005-04-22 07:42:52 51°13.451 2°51.275 241.9 14.8 239 10.6
2005-04-22 07:42:57 51°13.441 2°51.247 241.2 14.9 239 10.6
2005-04-22 07:43:01 51°13.433 2°51.225 241.6 14.8 239 10.6
2005-04-22 07:43:07 51°13.419 2°51.189 242 14.8 239 10.6
2005-04-22 07:43:11 51°13.41 2°51.167 241.1 14.8 239 10.6
2005-04-22 07:43:16 51°13.399 2°51.139 241.6 14.8 239 10.6
2005-04-22 07:43:21 51°13.39 2°51.113 241.6 14.8 239 10.6
2005-04-22 07:43:27 51°13.375 2°51.078 241.1 14.8 239 10.6
2005-04-22 07:43:31 51°13.367 2°51.055 240.9 14.9 238 10.8
2005-04-22 07:43:38 51°13.353 2°51.022 240.9 14.7 237 10.7
2005-04-22 07:43:42 51°13.345 2°51 240 14.8 238 10.7
2005-04-22 07:43:47 51°13.333 2°50.97 241 14.8 238 10.7
2005-04-22 07:43:52 51°13.321 2°50.94 241 14.8 238 10.7
2005-04-22 07:43:57 51°13.312 2°50.915 241.5 14.6 239 10.7
2005-04-22 07:44:02 51°13.301 2°50.887 241.5 14.7 237 10.7
2005-04-22 07:44:07 51°13.289 2°50.857 241.4 14.7 240 10.7
2005-04-22 07:44:11 51°13.281 2°50.835 241.8 14.6 238 10.7
2005-04-22 07:44:18 51°13.268 2°50.801 240.8 14.7 238 10.7
2005-04-22 07:44:22 51°13.258 2°50.777 241.9 14.7 238 10.7
2005-04-22 07:44:27 51°13.247 2°50.746 241.6 14.7 239 10.8
2005-04-22 07:44:31 51°13.238 2°50.724 241.6 14.7 238 10.8
2005-04-22 07:44:37 51°13.227 2°50.694 241.9 14.8 239 10.8
2005-04-22 07:44:42 51°13.214 2°50.663 242.1 14.8 239 10.8
2005-04-22 07:44:47 51°13.203 2°50.636 240.8 14.8 239 10.8
2005-04-22 07:44:51 51°13.195 2°50.614 240.7 14.8 238 10.8
2005-04-22 07:44:57 51°13.183 2°50.584 240.3 14.8 237 10.8
2005-04-22 07:45:02 51°13.17 2°50.553 239.8 14.8 237 10.9
2005-04-22 07:45:07 51°13.161 2°50.528 239.9 14.8 237 10.9
2005-04-22 07:45:11 51°13.151 2°50.504 240.2 14.7 237 10.9
2005-04-22 07:45:17 51°13.138 2°50.473 239.8 14.8 237 10.9
2005-04-22 07:45:21 51°13.129 2°50.451 239.8 14.8 236 10.8
2005-04-22 07:45:27 51°13.116 2°50.418 239.3 14.9 237 10.9
2005-04-22 07:45:31 51°13.106 2°50.394 239.5 14.9 238 10.9
2005-04-22 07:45:37 51°13.093 2°50.364 239.9 14.8 238 10.9
2005-04-22 07:45:42 51°13.083 2°50.338 239.6 14.8 237 10.9
2005-04-22 07:45:47 51°13.071 2°50.308 239.7 14.9 237 10.9
2005-04-22 07:45:51 51°13.062 2°50.286 239.8 14.8 236 10.9
2005-04-22 07:45:57 51°13.049 2°50.253 240 14.9 238 10.9
2005-04-22 07:46:02 51°13.038 2°50.225 239.9 14.9 237 10.9
2005-04-22 07:46:07 51°13.027 2°50.198 239.7 14.9 239 11.1
2005-04-22 07:46:12 51°13.015 2°50.17 240.4 14.8 236 11
2005-04-22 07:46:17 51°13.004 2°50.143 239.5 14.8 236 11
2005-04-22 07:46:22 51°12.993 2°50.115 239.9 14.9 238 11
2005-04-22 07:46:27 51°12.981 2°50.085 239.7 14.8 237 11
2005-04-22 07:46:31 51°12.972 2°50.063 239.8 14.8 237 11.1
2005-04-22 07:46:36 51°12.96 2°50.035 239.9 14.9 237 11
2005-04-22 07:46:41 51°12.951 2°50.01 239.9 15 237 11
2005-04-22 07:46:47 51°12.936 2°49.974 240.7 14.8 236 11
2005-04-22 07:46:51 51°12.928 2°49.952 240 14.9 238 11
2005-04-22 07:46:56 51°12.916 2°49.924 240.4 14.9 238 11.1
2005-04-22 07:47:02 51°12.904 2°49.893 240.4 14.9 238 11
2005-04-22 07:47:07 51°12.893 2°49.866 240.8 14.9 236 11.1
2005-04-22 07:47:11 51°12.884 2°49.84 240.2 14.9 237 11.2
2005-04-22 07:47:17 51°12.871 2°49.81 240.6 14.9 238 11.1
2005-04-22 07:47:21 51°12.862 2°49.787 240.7 14.9 238 11.2
2005-04-22 07:47:27 51°12.848 2°49.751 240.8 14.9 238 11.1
2005-04-22 07:47:31 51°12.839 2°49.729 240.8 14.9 238 11.2
2005-04-22 07:47:37 51°12.828 2°49.698 241 14.9 238 11.2
2005-04-22 07:47:42 51°12.817 2°49.673 240.4 14.8 236 11.1
2005-04-22 07:47:47 51°12.806 2°49.643 240.2 14.8 236 11.2
2005-04-22 07:47:52 51°12.794 2°49.615 240.5 14.9 236 11.2
2005-04-22 07:47:56 51°12.784 2°49.591 240.2 14.8 238 11.3
2005-04-22 07:48:01 51°12.774 2°49.566 239.5 14.8 238 11.2
2005-04-22 07:48:07 51°12.76 2°49.533 239.9 14.9 238 11.2
2005-04-22 07:48:11 51°12.751 2°49.508 240 14.8 238 11.2
2005-04-22 07:48:17 51°12.738 2°49.478 240.1 14.8 238 11.2
2005-04-22 07:48:21 51°12.73 2°49.455 239.6 15 238 11.3
2005-04-22 07:48:27 51°12.715 2°49.42 240.3 14.9 238 11.2
2005-04-22 07:48:31 51°12.707 2°49.398 240.2 14.9 238 11.2
2005-04-22 07:48:37 51°12.694 2°49.367 240.2 14.8 237 11.3
2005-04-22 07:48:40 51°12.687 2°49.347 240.8 14.9 238 11.3
2005-04-22 07:48:47 51°12.672 2°49.309 240.3 14.9 238 11.3
2005-04-22 07:48:51 51°12.662 2°49.286 240.7 14.9 238 11.2
2005-04-22 07:48:57 51°12.651 2°49.256 240.2 14.8 238 11.3
2005-04-22 07:49:02 51°12.64 2°49.231 240.4 14.8 238 11.3
2005-04-22 07:49:07 51°12.628 2°49.197 240.2 14.9 239 11.4
2005-04-22 07:49:12 51°12.616 2°49.17 240.8 14.9 239 11.4
2005-04-22 07:49:17 51°12.607 2°49.145 240 14.9 239 11.4
2005-04-22 07:49:22 51°12.595 2°49.118 240.3 14.8 239 11.4
2005-04-22 07:49:27 51°12.585 2°49.09 239.9 14.9 238 11.4
2005-04-22 07:49:31 51°12.575 2°49.065 240.1 14.8 238 11.3
2005-04-22 07:49:37 51°12.563 2°49.035 240.1 14.8 238 11.4
2005-04-22 07:49:41 51°12.554 2°49.013 240.1 14.8 237 11.4
2005-04-22 07:49:47 51°12.541 2°48.98 240.5 14.8 239 11.3
2005-04-22 07:49:51 51°12.531 2°48.955 240.6 14.8 238 11.4
2005-04-22 07:49:57 51°12.519 2°48.924 240.4 14.8 238 11.4
2005-04-22 07:50:01 51°12.51 2°48.903 240.2 14.8 237 11.4
2005-04-22 07:50:06 51°12.498 2°48.872 240.1 14.8 239 11.4
2005-04-22 07:50:12 51°12.486 2°48.841 240.6 14.8 239 11.4
2005-04-22 07:50:17 51°12.475 2°48.814 239.9 14.8 239 11.4
2005-04-22 07:50:22 51°12.463 2°48.784 240.4 14.8 239 11.4
2005-04-22 07:50:27 51°12.453 2°48.759 240.7 14.8 238 11.4
2005-04-22 07:50:31 51°12.445 2°48.737 240.7 14.7 238 11.5
2005-04-22 07:50:37 51°12.431 2°48.704 240.3 14.7 238 11.5
2005-04-22 07:50:41 51°12.423 2°48.681 240.2 14.8 238 11.5
2005-04-22 07:50:47 51°12.408 2°48.646 240.2 14.8 238 11.4
2005-04-22 07:50:51 51°12.4 2°48.623 240.4 14.8 238 11.5
2005-04-22 07:50:56 51°12.389 2°48.596 240.9 14.8 238 11.5
2005-04-22 07:51:02 51°12.377 2°48.565 240.6 14.8 238 11.5
2005-04-22 07:51:07 51°12.365 2°48.536 240.2 14.7 237 11.5
2005-04-22 07:51:12 51°12.354 2°48.508 240.1 14.7 238 11.5
2005-04-22 07:51:16 51°12.345 2°48.486 240.2 14.7 238 11.4
2005-04-22 07:51:21 51°12.335 2°48.461 239.9 14.8 237 11.4
2005-04-22 07:51:27 51°12.322 2°48.429 240.1 14.7 238 11.5
2005-04-22 07:51:31 51°12.312 2°48.404 239.5 14.8 237 11.5
2005-04-22 07:51:36 51°12.301 2°48.376 239.8 14.8 237 11.4
2005-04-22 07:51:42 51°12.29 2°48.348 240.2 14.7 238 11.4
2005-04-22 07:51:47 51°12.279 2°48.319 240.2 14.7 238 11.4
2005-04-22 07:51:52 51°12.267 2°48.288 240 14.7 238 11.4
2005-04-22 07:51:56 51°12.258 2°48.266 240.7 14.7 238 11.4
2005-04-22 07:52:02 51°12.247 2°48.239 240.1 14.7 238 11.4
2005-04-22 07:52:07 51°12.235 2°48.209 240.2 14.7 239 11.4
2005-04-22 07:52:12 51°12.224 2°48.179 240.8 14.7 237 11.4
2005-04-22 07:52:16 51°12.215 2°48.157 240.8 14.7 237 11.4
2005-04-22 07:52:21 51°12.205 2°48.132 240.7 14.7 239 11.5
2005-04-22 07:52:27 51°12.191 2°48.096 240.8 14.6 238 11.5
2005-04-22 07:52:31 51°12.183 2°48.074 240.7 14.7 237 11.5
2005-04-22 07:52:37 51°12.171 2°48.044 240.4 14.7 237 11.4
2005-04-22 07:52:42 51°12.161 2°48.019 240.7 14.7 237 11.4
2005-04-22 07:52:47 51°12.149 2°47.989 240.2 14.7 237 11.4
2005-04-22 07:52:51 51°12.139 2°47.965 240.1 14.7 238 11.4
2005-04-22 07:52:57 51°12.127 2°47.935 239.9 14.7 238 11.3
2005-04-22 07:53:02 51°12.117 2°47.909 240.6 14.7 239 11.3
2005-04-22 07:53:07 51°12.106 2°47.88 240.7 14.7 238 11.3
2005-04-22 07:53:12 51°12.095 2°47.852 241 14.7 239 11.3
2005-04-22 07:53:17 51°12.084 2°47.825 240.7 14.6 237 11.3
2005-04-22 07:53:22 51°12.072 2°47.794 240.2 14.6 237 11.3
2005-04-22 07:53:27 51°12.063 2°47.77 240.7 14.7 238 11.3
2005-04-22 07:53:32 51°12.052 2°47.742 240.2 14.7 238 11.2
2005-04-22 07:53:37 51°12.041 2°47.715 240.8 14.7 239 11.2
2005-04-22 07:53:41 51°12.033 2°47.693 241.1 14.6 239 11.2
2005-04-22 07:53:47 51°12.018 2°47.657 240.4 14.8 238 11.2
2005-04-22 07:53:52 51°12.008 2°47.629 240.4 14.8 238 11.2
2005-04-22 07:53:57 51°11.998 2°47.605 241 14.6 237 11.2
2005-04-22 07:54:01 51°11.99 2°47.582 240.2 14.7 239 11.1
2005-04-22 07:54:07 51°11.977 2°47.55 240.7 14.7 239 11.2
2005-04-22 07:54:12 51°11.965 2°47.52 240.5 14.5 238 11.2
2005-04-22 07:54:17 51°11.955 2°47.495 240 14.6 238 11.1
2005-04-22 07:54:22 51°11.945 2°47.47 239.8 14.6 238 11.1
2005-04-22 07:54:27 51°11.933 2°47.441 240.3 14.6 237 11.1
2005-04-22 07:54:31 51°11.923 2°47.416 240.2 14.6 237 11
2005-04-22 07:54:37 51°11.911 2°47.386 239.9 14.6 237 11
2005-04-22 07:54:42 51°11.899 2°47.356 239.5 14.7 237 10.9
2005-04-22 07:54:47 51°11.889 2°47.332 239.9 14.5 238 11
2005-04-22 07:54:51 51°11.879 2°47.308 240.1 14.5 237 11
2005-04-22 07:54:57 51°11.867 2°47.278 239.4 14.7 238 10.9
2005-04-22 07:55:02 51°11.857 2°47.25 239.6 14.7 237 10.9
2005-04-22 07:55:07 51°11.845 2°47.221 240.3 14.7 237 10.9
2005-04-22 07:55:11 51°11.836 2°47.199 240 14.7 237 10.8
2005-04-22 07:55:17 51°11.825 2°47.168 240.3 14.5 238 10.7
2005-04-22 07:55:22 51°11.814 2°47.14 241.9 14.7 240 10.7
2005-04-22 07:55:27 51°11.804 2°47.109 242.8 14.7 240 10.7
2005-04-22 07:55:31 51°11.796 2°47.087 243.8 14.4 240 10.8
2005-04-22 07:55:37 51°11.786 2°47.055 243.4 14.6 241 10.7
2005-04-22 07:55:41 51°11.778 2°47.033 244.3 14.7 241 10.7
2005-04-22 07:55:47 51°11.766 2°46.996 244.7 14.5 242 10.7
2005-04-22 07:55:52 51°11.757 2°46.97 244.6 14.5 241 10.8
2005-04-22 07:55:57 51°11.747 2°46.942 244.4 14.6 242 10.7
2005-04-22 07:56:02 51°11.738 2°46.916 244.2 14.6 241 10.7
2005-04-22 07:56:07 51°11.728 2°46.885 244.5 14.7 241 10.7
2005-04-22 07:56:12 51°11.718 2°46.856 244.5 14.6 242 10.6
2005-04-22 07:56:17 51°11.709 2°46.828 244.6 14.7 242 10.6
2005-04-22 07:56:22 51°11.699 2°46.799 244.5 14.7 242 10.6
2005-04-22 07:56:27 51°11.689 2°46.768 244.7 14.6 242 10.6
2005-04-22 07:56:31 51°11.681 2°46.745 244.7 14.7 242 10.6
2005-04-22 07:56:37 51°11.67 2°46.714 245.1 14.7 242 10.6
2005-04-22 07:56:41 51°11.663 2°46.691 244.9 14.7 242 10.5
2005-04-22 07:56:47 51°11.651 2°46.656 244.8 14.7 241 10.6
2005-04-22 07:56:52 51°11.642 2°46.628 244.6 14.7 241 10.5
2005-04-22 07:56:57 51°11.632 2°46.599 244.5 14.7 241 10.6
2005-04-22 07:57:02 51°11.622 2°46.568 244.7 14.6 243 10.6
2005-04-22 07:57:07 51°11.614 2°46.542 246 14.6 244 10.7
2005-04-22 07:57:11 51°11.606 2°46.515 247 14.6 244 10.7
2005-04-22 07:57:17 51°11.597 2°46.483 248.4 14.7 245 10.7
2005-04-22 07:57:22 51°11.588 2°46.45 249.4 14.7 246 10.7
2005-04-22 07:57:27 51°11.581 2°46.423 250.1 14.6 247 10.8
2005-04-22 07:57:31 51°11.575 2°46.399 250.4 14.6 247 10.7
2005-04-22 07:57:37 51°11.565 2°46.364 250.4 14.7 247 10.8
2005-04-22 07:57:41 51°11.559 2°46.34 250.5 14.6 247 10.8
2005-04-22 07:57:47 51°11.549 2°46.304 250.3 14.7 246 10.8
2005-04-22 07:57:52 51°11.541 2°46.274 250 14.7 246 10.8
2005-04-22 07:57:57 51°11.533 2°46.245 249.9 14.6 246 10.8
2005-04-22 07:58:01 51°11.526 2°46.221 249.8 14.6 246 10.8
2005-04-22 07:58:07 51°11.516 2°46.182 249.3 14.7 245 10.8
2005-04-22 07:58:11 51°11.509 2°46.159 249.8 14.6 246 10.8
2005-04-22 07:58:16 51°11.501 2°46.13 249.2 14.6 246 10.8
2005-04-22 07:58:21 51°11.493 2°46.103 249.3 14.6 246 10.7
2005-04-22 07:58:26 51°11.484 2°46.07 249.6 14.6 246 10.7
2005-04-22 07:58:31 51°11.476 2°46.04 249.6 14.6 246 10.8
2005-04-22 07:58:37 51°11.467 2°46.008 249.6 14.6 246 10.7
2005-04-22 07:58:41 51°11.461 2°45.984 249.3 14.6 247 10.7
2005-04-22 07:58:47 51°11.451 2°45.949 249.7 14.7 246 10.7
2005-04-22 07:58:51 51°11.443 2°45.922 249.3 14.7 247 10.6
2005-04-22 07:58:57 51°11.434 2°45.889 249.6 14.7 246 10.7
2005-04-22 07:59:01 51°11.428 2°45.865 249.6 14.7 247 10.7
2005-04-22 07:59:07 51°11.418 2°45.83 249.6 14.7 246 10.7
2005-04-22 07:59:12 51°11.409 2°45.797 249.7 14.7 246 10.7
2005-04-22 07:59:16 51°11.402 2°45.774 249.6 14.7 246 10.7
2005-04-22 07:59:22 51°11.393 2°45.741 249 14.7 246 10.8
2005-04-22 07:59:27 51°11.385 2°45.712 249.3 14.6 246 10.8
2005-04-22 07:59:32 51°11.376 2°45.679 249.7 14.6 246 10.7
2005-04-22 07:59:37 51°11.369 2°45.652 250.1 14.6 246 10.7
2005-04-22 07:59:41 51°11.363 2°45.628 250.2 14.6 248 10.8
2005-04-22 07:59:47 51°11.353 2°45.593 250.4 14.5 246 10.7
2005-04-22 07:59:51 51°11.346 2°45.566 249.7 14.6 247 10.7
2005-04-22 07:59:57 51°11.337 2°45.534 250.2 14.6 247 10.6
2005-04-22 08:00:02 51°11.329 2°45.504 249.2 14.6 246 10.7
2005-04-22 08:00:07 51°11.321 2°45.475 250 14.6 247 10.7
2005-04-22 08:00:12 51°11.312 2°45.443 250.2 14.5 246 10.7
2005-04-22 08:00:16 51°11.306 2°45.419 249.7 14.6 246 10.7
2005-04-22 08:00:22 51°11.297 2°45.389 249.4 14.6 247 10.7
2005-04-22 08:00:27 51°11.289 2°45.358 249.6 14.5 247 10.7
2005-04-22 08:00:31 51°11.281 2°45.331 249.7 14.5 246 10.7
2005-04-22 08:00:37 51°11.272 2°45.299 249.1 14.5 246 10.7
2005-04-22 08:00:42 51°11.264 2°45.266 249 14.6 246 10.7
2005-04-22 08:00:47 51°11.256 2°45.24 249.6 14.5 246 10.7
2005-04-22 08:00:51 51°11.249 2°45.214 248.9 14.5 247 10.7
2005-04-22 08:00:57 51°11.24 2°45.182 249.3 14.5 247 10.7
2005-04-22 08:01:01 51°11.233 2°45.158 249.2 14.6 246 10.6
2005-04-22 08:01:07 51°11.223 2°45.119 249 14.6 247 10.6
2005-04-22 08:01:12 51°11.215 2°45.093 249.5 14.5 245 10.6
2005-04-22 08:01:17 51°11.207 2°45.063 249.1 14.6 247 10.6
2005-04-22 08:01:21 51°11.201 2°45.04 249.7 14.5 246 10.6
2005-04-22 08:01:27 51°11.19 2°45.002 249.6 14.5 246 10.6
2005-04-22 08:01:31 51°11.184 2°44.978 249.3 14.6 246 10.6
2005-04-22 08:01:37 51°11.175 2°44.946 249 14.6 246 10.6
2005-04-22 08:01:42 51°11.166 2°44.916 249.3 14.6 246 10.6
2005-04-22 08:01:47 51°11.157 2°44.884 249.3 14.6 246 10.5
2005-04-22 08:01:52 51°11.15 2°44.857 249.3 14.6 247 10.6
2005-04-22 08:01:57 51°11.143 2°44.828 249.8 14.6 246 10.5
2005-04-22 08:02:02 51°11.135 2°44.801 249.7 14.6 247 10.6
2005-04-22 08:02:07 51°11.126 2°44.766 249.8 14.6 247 10.6
2005-04-22 08:02:11 51°11.119 2°44.742 250 14.6 246 10.6
2005-04-22 08:02:17 51°11.111 2°44.709 249.8 14.7 247 10.5
2005-04-22 08:02:21 51°11.104 2°44.686 250.1 14.5 246 10.6
2005-04-22 08:02:27 51°11.094 2°44.647 249.7 14.5 246 10.5
2005-04-22 08:02:32 51°11.087 2°44.62 249.5 14.5 246 10.5
2005-04-22 08:02:37 51°11.078 2°44.592 250 14.5 247 10.5
2005-04-22 08:02:41 51°11.072 2°44.568 249.1 14.5 247 10.5
2005-04-22 08:02:47 51°11.061 2°44.53 249.4 14.6 248 10.4
2005-04-22 08:02:51 51°11.055 2°44.506 249.6 14.6 246 10.5
2005-04-22 08:02:57 51°11.046 2°44.473 249.6 14.6 247 10.5
2005-04-22 08:03:02 51°11.038 2°44.444 249.7 14.6 247 10.4
2005-04-22 08:03:07 51°11.03 2°44.415 249.2 14.5 246 10.5
2005-04-22 08:03:12 51°11.021 2°44.382 249.2 14.5 246 10.5
2005-04-22 08:03:17 51°11.014 2°44.356 249.2 14.5 247 10.5
2005-04-22 08:03:22 51°11.006 2°44.329 249.4 14.5 247 10.5
2005-04-22 08:03:27 51°10.996 2°44.295 249.1 14.4 246 10.4
2005-04-22 08:03:32 51°10.989 2°44.269 248.9 14.4 246 10.4
2005-04-22 08:03:37 51°10.981 2°44.24 248.9 14.4 246 10.4
2005-04-22 08:03:41 51°10.974 2°44.217 249.3 14.4 246 10.4
2005-04-22 08:03:47 51°10.963 2°44.18 249 14.3 245 10.4
2005-04-22 08:03:52 51°10.956 2°44.153 248.9 14.4 246 10.3
2005-04-22 08:03:57 51°10.948 2°44.124 249 14.4 246 10.3
2005-04-22 08:04:02 51°10.939 2°44.093 249.8 14.2 246 10.3
2005-04-22 08:04:07 51°10.931 2°44.064 249.6 14.3 247 10.3
2005-04-22 08:04:11 51°10.925 2°44.041 249.4 14.3 246 10.2
2005-04-22 08:04:17 51°10.916 2°44.009 249.6 14.4 246 10.2
2005-04-22 08:04:22 51°10.908 2°43.982 249.6 14.3 246 10.3
2005-04-22 08:04:27 51°10.899 2°43.948 249.3 14.3 246 10.3
2005-04-22 08:04:31 51°10.892 2°43.925 249 14.4 246 10.2
2005-04-22 08:04:36 51°10.884 2°43.896 249.1 14.4 246 10.2
2005-04-22 08:04:42 51°10.876 2°43.867 249.2 14.3 246 10.2
2005-04-22 08:04:47 51°10.866 2°43.834 249.2 14.2 246 10.2
2005-04-22 08:04:51 51°10.86 2°43.81 248.8 14.3 246 10.2
2005-04-22 08:04:57 51°10.851 2°43.779 249.3 14.4 246 10.2
2005-04-22 08:05:02 51°10.844 2°43.749 249.3 14.3 247 10.2
2005-04-22 08:05:07 51°10.834 2°43.719 249.9 14.2 245 10.2
2005-04-22 08:05:12 51°10.827 2°43.692 249.3 14.2 245 10.1
2005-04-22 08:05:17 51°10.819 2°43.663 249.4 14.4 245 10.1
2005-04-22 08:05:20 51°10.814 2°43.643 249.4 14.4 246 10.1
2005-04-22 08:05:26 51°10.805 2°43.611 249.2 14.3 245 10.1
2005-04-22 08:05:32 51°10.794 2°43.574 249 14.3 246 10.1
2005-04-22 08:05:37 51°10.787 2°43.548 248.9 14.3 246 10.1
2005-04-22 08:05:40 51°10.781 2°43.528 248.9 14.4 245 10
2005-04-22 08:05:47 51°10.771 2°43.49 249.2 14.3 247 10.1
2005-04-22 08:05:51 51°10.763 2°43.464 249.6 14.3 247 10.1
2005-04-22 08:05:58 51°10.754 2°43.428 249 14.4 247 10.1
2005-04-22 08:06:02 51°10.747 2°43.406 249.6 14.4 245 10
2005-04-22 08:06:07 51°10.739 2°43.374 249.3 14.4 248 10
2005-04-22 08:06:12 51°10.731 2°43.345 250.2 14.3 246 10
2005-04-22 08:06:17 51°10.723 2°43.316 248.9 14.3 246 10
2005-04-22 08:06:20 51°10.717 2°43.296 249.6 14.4 248 10
2005-04-22 08:06:27 51°10.706 2°43.255 249.1 14.4 245 10
2005-04-22 08:06:31 51°10.7 2°43.235 249.4 14.3 247 9.9
2005-04-22 08:06:37 51°10.69 2°43.2 249.3 14.3 247 9.9
2005-04-22 08:06:42 51°10.682 2°43.172 249 14.3 246 9.9
2005-04-22 08:06:47 51°10.674 2°43.143 249.3 14.3 246 9.9
2005-04-22 08:06:52 51°10.666 2°43.113 249.2 14.3 246 9.9
2005-04-22 08:06:57 51°10.658 2°43.084 249.3 14.4 247 9.9
2005-04-22 08:07:02 51°10.649 2°43.053 249.3 14.3 246 9.9
2005-04-22 08:07:07 51°10.642 2°43.027 248.8 14.4 247 9.9
2005-04-22 08:07:11 51°10.634 2°43.001 248.8 14.4 246 9.9
2005-04-22 08:07:17 51°10.625 2°42.97 248.9 14.3 246 9.8
2005-04-22 08:07:21 51°10.619 2°42.946 248.9 14.4 245 9.8
2005-04-22 08:07:27 51°10.609 2°42.912 249.1 14.3 246 9.8
2005-04-22 08:07:32 51°10.6 2°42.88 249 14.3 246 9.7
2005-04-22 08:07:37 51°10.593 2°42.854 248.9 14.3 246 9.7
2005-04-22 08:07:40 51°10.587 2°42.834 248.9 14.4 247 9.7
2005-04-22 08:07:47 51°10.576 2°42.796 249.6 14.4 246 9.7
2005-04-22 08:07:51 51°10.569 2°42.77 249.6 14.3 246 9.7
2005-04-22 08:07:57 51°10.56 2°42.739 248.9 14.3 245 9.7
2005-04-22 08:08:00 51°10.555 2°42.718 249.3 14.3 246 9.7
2005-04-22 08:08:07 51°10.544 2°42.681 249 14.3 246 9.7
2005-04-22 08:08:11 51°10.537 2°42.658 248.9 14.3 246 9.7
2005-04-22 08:08:17 51°10.527 2°42.624 248.9 14.3 246 9.6
2005-04-22 08:08:21 51°10.521 2°42.601 248.6 14.2 246 9.7
2005-04-22 08:08:27 51°10.51 2°42.563 248.5 14.2 245 9.5
2005-04-22 08:08:31 51°10.503 2°42.54 248.5 14.4 245 9.6
2005-04-22 08:08:37 51°10.495 2°42.508 248.9 14.4 245 9.6
2005-04-22 08:08:41 51°10.488 2°42.485 249.8 14.4 247 9.7
2005-04-22 08:08:47 51°10.478 2°42.447 249.6 14.4 246 9.6
2005-04-22 08:08:51 51°10.472 2°42.424 249.7 14.2 246 9.6
2005-04-22 08:08:57 51°10.463 2°42.392 249.9 14.2 245 9.6
2005-04-22 08:09:02 51°10.454 2°42.361 249.2 14.3 247 9.6
2005-04-22 08:09:07 51°10.446 2°42.331 249.2 14.3 247 9.6
2005-04-22 08:09:11 51°10.44 2°42.312 249.7 14.3 246 9.7
2005-04-22 08:09:17 51°10.43 2°42.277 249.2 14.3 246 9.6
2005-04-22 08:09:22 51°10.422 2°42.247 248.9 14.5 246 9.6
2005-04-22 08:09:27 51°10.414 2°42.215 249.4 14.5 246 9.6
2005-04-22 08:09:31 51°10.408 2°42.192 250.6 14.3 248 9.6
2005-04-22 08:09:37 51°10.401 2°42.159 251.8 14.4 250 9.6
2005-04-22 08:09:42 51°10.395 2°42.131 253.6 14.4 250 9.6
2005-04-22 08:09:47 51°10.388 2°42.099 254.8 14.4 252 9.7
2005-04-22 08:09:51 51°10.383 2°42.071 255.4 14.4 253 9.7
2005-04-22 08:09:57 51°10.376 2°42.039 256 14.4 253 9.7
2005-04-22 08:10:02 51°10.37 2°42.008 255.6 14.4 253 9.7
2005-04-22 08:10:07 51°10.363 2°41.978 255.6 14.4 253 9.7
2005-04-22 08:10:12 51°10.357 2°41.948 255.4 14.4 251 9.8
2005-04-22 08:10:17 51°10.35 2°41.917 254.7 14.4 251 9.8
2005-04-22 08:10:21 51°10.345 2°41.894 254.8 14.4 251 9.8
2005-04-22 08:10:27 51°10.338 2°41.858 254.7 14.3 251 9.9
2005-04-22 08:10:31 51°10.332 2°41.833 254.2 14.4 251 9.8
2005-04-22 08:10:38 51°10.324 2°41.793 254.5 14.5 251 9.9
2005-04-22 08:10:41 51°10.319 2°41.773 254.7 14.5 251 9.9
2005-04-22 08:10:47 51°10.31 2°41.733 254.3 14.4 250 9.8
2005-04-22 08:10:51 51°10.306 2°41.712 254.6 14.5 251 9.9
2005-04-22 08:10:57 51°10.298 2°41.676 254.5 14.5 251 10
2005-04-22 08:11:02 51°10.292 2°41.649 254.1 14.4 250 9.9
2005-04-22 08:11:07 51°10.283 2°41.614 254 14.4 250 10
2005-04-22 08:11:12 51°10.277 2°41.586 253.6 14.5 250 9.9
2005-04-22 08:11:16 51°10.271 2°41.559 253.7 14.5 250 10
2005-04-22 08:11:22 51°10.264 2°41.526 254 14.5 250 9.9
2005-04-22 08:11:27 51°10.258 2°41.496 254.1 14.5 250 10
2005-04-22 08:11:31 51°10.252 2°41.468 254.8 14.5 251 10
2005-04-22 08:11:37 51°10.245 2°41.435 255 14.5 251 9.9
2005-04-22 08:11:42 51°10.238 2°41.405 255 14.5 251 10.1
2005-04-22 08:11:47 51°10.231 2°41.375 254.7 14.5 250 10
2005-04-22 08:11:51 51°10.226 2°41.348 254.7 14.4 251 10.1
2005-04-22 08:11:57 51°10.219 2°41.314 254.7 14.5 250 10.1
2005-04-22 08:12:01 51°10.213 2°41.29 254.8 14.6 251 10.1
2005-04-22 08:12:07 51°10.205 2°41.25 255.3 14.6 251 10.1
2005-04-22 08:12:12 51°10.199 2°41.22 255.5 14.5 251 10.2
2005-04-22 08:12:17 51°10.193 2°41.193 255.3 14.5 251 10.2
2005-04-22 08:12:22 51°10.186 2°41.162 255 14.5 251 10.2
2005-04-22 08:12:27 51°10.18 2°41.132 254.7 14.5 251 10.3
2005-04-22 08:12:32 51°10.173 2°41.101 254.6 14.5 249 10.2
2005-04-22 08:12:38 51°10.165 2°41.068 254.2 14.5 249 10.3
2005-04-22 08:12:42 51°10.16 2°41.044 254.7 14.5 251 10.2
2005-04-22 08:12:47 51°10.153 2°41.008 255 14.4 252 10.2
2005-04-22 08:12:51 51°10.148 2°40.984 255 14.4 251 10.3
2005-04-22 08:12:57 51°10.14 2°40.951 254.8 14.5 252 10.3
2005-04-22 08:13:01 51°10.135 2°40.926 254.6 14.5 250 10.3
2005-04-22 08:13:07 51°10.126 2°40.887 254.4 14.5 250 10.3
2005-04-22 08:13:12 51°10.12 2°40.86 254 14.5 250 10.3
2005-04-22 08:13:17 51°10.113 2°40.83 254 14.5 250 10.4
2005-04-22 08:13:22 51°10.107 2°40.802 254 14.4 251 10.4
2005-04-22 08:13:27 51°10.099 2°40.767 253.7 14.4 250 10.4
2005-04-22 08:13:31 51°10.094 2°40.743 253.6 14.5 250 10.4
2005-04-22 08:13:35 51°10.089 2°40.719 254.2 14.5 252 10.4
2005-04-22 08:13:43 51°10.078 2°40.674 254.4 14.5 252 10.4
2005-04-22 08:13:47 51°10.073 2°40.647 254.2 14.5 252 10.5
2005-04-22 08:13:51 51°10.067 2°40.623 254.4 14.4 251 10.5
2005-04-22 08:13:57 51°10.06 2°40.59 254.3 14.4 251 10.5
2005-04-22 08:14:00 51°10.056 2°40.569 254.3 14.4 251 10.5
2005-04-22 08:14:07 51°10.046 2°40.527 254.6 14.5 251 10.5
2005-04-22 08:14:12 51°10.041 2°40.499 254.8 14.4 252 10.5
2005-04-22 08:14:16 51°10.035 2°40.473 255 14.4 250 10.5
2005-04-22 08:14:21 51°10.029 2°40.445 254.7 14.4 252 10.6
2005-04-22 08:14:27 51°10.021 2°40.406 254.7 14.4 250 10.5
2005-04-22 08:14:32 51°10.014 2°40.376 254.7 14.4 252 10.5
2005-04-22 08:14:37 51°10.008 2°40.349 254.8 14.4 250 10.5
2005-04-22 08:14:40 51°10.003 2°40.328 254.2 14.4 251 10.5
2005-04-22 08:14:47 51°9.994 2°40.29 252.7 14.3 249 10.6
2005-04-22 08:14:52 51°9.986 2°40.26 252.6 14.3 249 10.6
2005-04-22 08:14:57 51°9.98 2°40.23 252.5 14.4 248 10.6
2005-04-22 08:15:02 51°9.972 2°40.201 252.5 14.4 250 10.6
2005-04-22 08:15:07 51°9.965 2°40.171 252.3 14.4 249 10.6
2005-04-22 08:15:11 51°9.958 2°40.145 252.1 14.4 248 10.6
2005-04-22 08:15:17 51°9.95 2°40.112 251.8 14.4 249 10.6
2005-04-22 08:15:22 51°9.943 2°40.083 252 14.4 249 10.6
2005-04-22 08:15:27 51°9.936 2°40.05 252.1 14.4 249 10.7
2005-04-22 08:15:31 51°9.929 2°40.026 252.5 14.4 249 10.7
2005-04-22 08:15:37 51°9.922 2°39.993 252.6 14.5 249 10.7
2005-04-22 08:15:42 51°9.915 2°39.966 252.9 14.5 249 10.7
2005-04-22 08:15:47 51°9.908 2°39.933 252.8 14.4 250 10.7
2005-04-22 08:15:52 51°9.9 2°39.904 252.8 14.4 249 10.7
2005-04-22 08:15:57 51°9.894 2°39.874 252.7 14.4 249 10.7
2005-04-22 08:16:02 51°9.887 2°39.846 252.7 14.4 249 10.6
2005-04-22 08:16:07 51°9.878 2°39.811 252.5 14.4 249 10.7
2005-04-22 08:16:11 51°9.872 2°39.788 252.2 14.5 249 10.7
2005-04-22 08:16:16 51°9.865 2°39.758 251.8 14.4 248 10.7
2005-04-22 08:16:21 51°9.858 2°39.732 251.6 14.4 248 10.7
2005-04-22 08:16:27 51°9.849 2°39.696 251.1 14.4 249 10.7
2005-04-22 08:16:32 51°9.841 2°39.663 251.7 14.4 249 10.7
2005-04-22 08:16:37 51°9.835 2°39.636 251.8 14.4 249 10.7
2005-04-22 08:16:40 51°9.83 2°39.616 252 14.4 249 10.7
2005-04-22 08:16:47 51°9.82 2°39.577 252.1 14.4 249 10.7
2005-04-22 08:16:52 51°9.813 2°39.547 252.2 14.4 249 10.8
2005-04-22 08:16:57 51°9.806 2°39.518 252.2 14.5 249 10.7
2005-04-22 08:17:01 51°9.8 2°39.494 252 14.4 249 10.8
2005-04-22 08:17:07 51°9.791 2°39.458 252 14.5 249 10.8
2005-04-22 08:17:12 51°9.783 2°39.425 252 14.5 249 10.8
2005-04-22 08:17:17 51°9.777 2°39.399 252 14.5 249 10.9
2005-04-22 08:17:22 51°9.769 2°39.366 252 14.4 248 10.8
2005-04-22 08:17:27 51°9.761 2°39.337 251.8 14.4 248 10.8
2005-04-22 08:17:31 51°9.755 2°39.313 251.4 14.5 249 10.9
2005-04-22 08:17:37 51°9.747 2°39.28 251.7 14.5 249 10.9
2005-04-22 08:17:41 51°9.742 2°39.256 252 14.5 249 11
2005-04-22 08:17:47 51°9.733 2°39.22 252.1 14.5 249 10.9
2005-04-22 08:17:51 51°9.727 2°39.194 252.6 14.4 250 10.9
2005-04-22 08:17:56 51°9.719 2°39.164 252.5 14.5 249 10.9
2005-04-22 08:18:02 51°9.711 2°39.131 252.4 14.5 249 10.9
2005-04-22 08:18:07 51°9.704 2°39.102 251.9 14.5 248 10.9
2005-04-22 08:18:11 51°9.697 2°39.075 252 14.4 248 10.9
2005-04-22 08:18:17 51°9.689 2°39.042 251.3 14.4 247 11
2005-04-22 08:18:22 51°9.682 2°39.015 250.6 14.5 248 11
2005-04-22 08:18:27 51°9.674 2°38.984 250.1 14.5 247 11
2005-04-22 08:18:32 51°9.665 2°38.954 249.9 14.5 247 11
2005-04-22 08:18:37 51°9.658 2°38.925 249.7 14.4 247 11
2005-04-22 08:18:42 51°9.651 2°38.898 249.8 14.5 248 11.1
2005-04-22 08:18:47 51°9.643 2°38.866 250.4 14.4 247 11.1
2005-04-22 08:18:52 51°9.635 2°38.836 249.9 14.4 247 11.2
2005-04-22 08:18:56 51°9.628 2°38.81 249.9 14.5 248 11.2
2005-04-22 08:19:02 51°9.62 2°38.78 250.4 14.5 247 11.1
2005-04-22 08:19:07 51°9.611 2°38.745 250 14.4 248 11.1
2005-04-22 08:19:12 51°9.603 2°38.716 250.4 14.4 247 11.2
2005-04-22 08:19:17 51°9.597 2°38.689 250.3 14.4 247 11.1
2005-04-22 08:19:22 51°9.589 2°38.66 250.5 14.4 247 11.1
2005-04-22 08:19:27 51°9.581 2°38.631 250.4 14.4 248 11.1
2005-04-22 08:19:31 51°9.574 2°38.605 250.2 14.4 247 11.1
2005-04-22 08:19:38 51°9.565 2°38.569 249.7 14.4 247 11.1
2005-04-22 08:19:42 51°9.559 2°38.545 249.8 14.4 247 11.2
2005-04-22 08:19:47 51°9.55 2°38.514 249.8 14.4 247 11.2
2005-04-22 08:19:52 51°9.543 2°38.485 249.9 14.4 248 11.2
2005-04-22 08:19:57 51°9.536 2°38.455 250 14.4 247 11.3
2005-04-22 08:20:02 51°9.527 2°38.423 250.4 14.4 247 11.3
2005-04-22 08:20:07 51°9.52 2°38.396 250.7 14.4 248 11.3
2005-04-22 08:20:12 51°9.513 2°38.367 250.7 14.3 247 11.3
2005-04-22 08:20:17 51°9.505 2°38.337 250.3 14.4 247 11.3
2005-04-22 08:20:21 51°9.499 2°38.314 249.8 14.4 249 11.3
2005-04-22 08:20:27 51°9.489 2°38.276 250.3 14.4 249 11.2
2005-04-22 08:20:31 51°9.483 2°38.253 250.3 14.4 247 11.2
2005-04-22 08:20:38 51°9.474 2°38.217 250.1 14.4 247 11.3
2005-04-22 08:20:42 51°9.466 2°38.188 250.6 14.4 247 11.3
2005-04-22 08:20:47 51°9.459 2°38.162 250 14.4 248 11.3
2005-04-22 08:20:52 51°9.452 2°38.132 250.2 14.4 248 11.3
2005-04-22 08:20:56 51°9.445 2°38.106 250.5 14.4 248 11.2
2005-04-22 08:21:02 51°9.436 2°38.071 250.4 14.4 248 11.2
2005-04-22 08:21:07 51°9.429 2°38.045 251 14.4 248 11.2
2005-04-22 08:21:11 51°9.423 2°38.018 250.7 14.4 248 11.3
2005-04-22 08:21:17 51°9.414 2°37.987 250.7 14.4 248 11.3
2005-04-22 08:21:22 51°9.407 2°37.957 250.4 14.4 248 11.4
2005-04-22 08:21:27 51°9.399 2°37.928 250.3 14.3 247 11.4
2005-04-22 08:21:32 51°9.391 2°37.899 249.9 14.3 248 11.3
2005-04-22 08:21:37 51°9.384 2°37.87 250 14.3 247 11.4
2005-04-22 08:21:42 51°9.376 2°37.841 250.4 14.3 248 11.4
2005-04-22 08:21:47 51°9.369 2°37.812 249.8 14.3 247 11.4
2005-04-22 08:21:51 51°9.362 2°37.786 250.1 14.3 248 11.4
2005-04-22 08:21:57 51°9.353 2°37.754 250.2 14.3 247 11.3
2005-04-22 08:22:02 51°9.345 2°37.722 249.9 14.3 247 11.4
2005-04-22 08:22:07 51°9.338 2°37.697 250.1 14.2 247 11.4
2005-04-22 08:22:12 51°9.33 2°37.667 250.1 14.2 247 11.3
2005-04-22 08:22:16 51°9.323 2°37.642 249.6 14.3 246 11.4
2005-04-22 08:22:22 51°9.314 2°37.607 249.5 14.3 246 11.3
2005-04-22 08:22:27 51°9.307 2°37.581 249.5 14.3 246 11.3
2005-04-22 08:22:31 51°9.301 2°37.557 249.5 14.3 248 11.4
2005-04-22 08:22:37 51°9.292 2°37.523 250.1 14.2 247 11.3
2005-04-22 08:22:41 51°9.286 2°37.5 250.2 14.1 248 11.4
2005-04-22 08:22:47 51°9.277 2°37.464 250.6 13.9 248 11.3
2005-04-22 08:22:52 51°9.271 2°37.441 250.8 12.8 249 11.3
2005-04-22 08:22:57 51°9.265 2°37.417 251.1 12.1 248 11.3
2005-04-22 08:23:01 51°9.261 2°37.398 251.2 11.8 249 11.5
2005-04-22 08:23:07 51°9.254 2°37.371 251.5 10.7 249 11.6
2005-04-22 08:23:11 51°9.252 2°37.355 253.1 9.8 253 11.6
2005-04-22 08:23:17 51°9.249 2°37.335 258.2 8.8 258 11.7
2005-04-22 08:23:22 51°9.248 2°37.317 262.8 8.5 260 11.7
2005-04-22 08:23:27 51°9.248 2°37.299 269.8 7.5 268 11.8
2005-04-22 08:23:31 51°9.249 2°37.287 275.7 7.1 272 11.8
2005-04-22 08:23:37 51°9.251 2°37.272 280.9 6.7 276 11.9
2005-04-22 08:23:42 51°9.252 2°37.259 286.1 6.7 276 12
2005-04-22 08:23:47 51°9.255 2°37.246 289.9 5.8 285 12
2005-04-22 08:23:51 51°9.257 2°37.237 294 5.4 288 12.1
2005-04-22 08:23:58 51°9.26 2°37.225 296 5.4 288 12.2
2005-04-22 08:24:01 51°9.261 2°37.219 299.3 4.5 293 12.3
2005-04-22 08:24:07 51°9.264 2°37.209 302.8 4.5 293 12.3
2005-04-22 08:24:11 51°9.266 2°37.203 306.4 3.7 299 12.4
2005-04-22 08:24:17 51°9.269 2°37.196 310.6 3.6 299 12.4
2005-04-22 08:24:21 51°9.271 2°37.191 314.2 3 303 12.5
2005-04-22 08:24:27 51°9.273 2°37.185 316.6 2.8 303 12.6
2005-04-22 08:24:31 51°9.275 2°37.181 320 2.6 306 12.6
2005-04-22 08:24:37 51°9.277 2°37.177 323.7 2.3 305 12.6
2005-04-22 08:24:42 51°9.279 2°37.174 326.4 2.2 307 12.7
2005-04-22 08:24:47 51°9.28 2°37.171 330.7 1.6 304 12.7
2005-04-22 08:24:52 51°9.281 2°37.169 333.2 1.4 304 12.7
2005-04-22 08:24:57 51°9.282 2°37.167 337.1 1 293 12.7
2005-04-22 08:25:00 51°9.282 2°37.166 341.3 0.8 280 12.7
2005-04-22 08:25:07 51°9.281 2°37.164 344.3 0.8 280 12.8
2005-04-22 08:25:11 51°9.28 2°37.163 346.4 0.7 241 12.7
2005-04-22 08:25:17 51°9.28 2°37.161 348.7 0.7 241 12.7
2005-04-22 08:25:21 51°9.279 2°37.161 349.8 0.7 239 12.7
2005-04-22 08:25:27 51°9.279 2°37.16 350.5 0.6 233 12.7
2005-04-22 08:25:32 51°9.279 2°37.158 350.5 0.6 232 12.7
2005-04-22 08:25:38 51°9.278 2°37.157 350.5 0.6 230 12.7
2005-04-22 08:25:42 51°9.277 2°37.156 350.5 0.6 232 12.7
2005-04-22 08:25:47 51°9.277 2°37.155 350.2 0.6 229 12.7
2005-04-22 08:25:51 51°9.277 2°37.155 349.9 0.5 232 12.8
2005-04-22 08:25:57 51°9.276 2°37.154 349.7 0.5 232 -999
2005-04-22 08:26:03 51°9.276 2°37.152 349.2 0.5 226 -999
2005-04-22 08:26:07 51°9.275 2°37.151 348.9 0.5 226 -999
2005-04-22 08:26:13 51°9.275 2°37.15 348.5 0.5 226 -999
2005-04-22 08:26:18 51°9.274 2°37.149 348.3 0.5 226 5.4
2005-04-22 08:26:23 51°9.274 2°37.148 348 0.5 232 -999
2005-04-22 08:26:27 51°9.273 2°37.147 347.7 0.5 236 12.7
2005-04-22 08:26:31 51°9.273 2°37.146 347.3 0.5 236 12.7
2005-04-22 08:26:37 51°9.273 2°37.146 346.8 0.5 236 12.8
2005-04-22 08:26:41 51°9.272 2°37.145 346.3 0.6 237 12.7
2005-04-22 08:26:47 51°9.272 2°37.143 345.8 0.6 237 12.7
2005-04-22 08:26:52 51°9.271 2°37.143 345.4 0.6 240 12.7
2005-04-22 08:26:57 51°9.271 2°37.142 344.7 0.5 236 12.7
2005-04-22 08:27:01 51°9.27 2°37.141 344.2 0.5 233 12.7
2005-04-22 08:27:07 51°9.27 2°37.14 343.7 0.5 233 12.7
2005-04-22 08:27:11 51°9.27 2°37.139 343.1 0.5 230 12.7
2005-04-22 08:27:15 51°9.269 2°37.138 342.4 0.6 236 12.7
2005-04-22 08:27:21 51°9.269 2°37.137 341.8 0.6 242 12.7
2005-04-22 08:27:27 51°9.268 2°37.136 341.3 0.5 239 12.7
2005-04-22 08:27:32 51°9.268 2°37.135 340.9 0.5 239 12.7
2005-04-22 08:27:37 51°9.268 2°37.134 340.4 0.5 240 12.8
2005-04-22 08:27:41 51°9.267 2°37.133 339.9 0.5 241 12.7
2005-04-22 08:27:47 51°9.267 2°37.132 339.3 0.5 240 12.7
2005-04-22 08:27:52 51°9.267 2°37.131 338.9 0.5 240 12.8
2005-04-22 08:27:57 51°9.266 2°37.13 338.5 0.5 240 12.8
2005-04-22 08:28:01 51°9.266 2°37.129 338 0.5 236 12.7
2005-04-22 08:28:07 51°9.265 2°37.128 337.4 0.5 239 12.8
2005-04-22 08:28:12 51°9.265 2°37.127 336.9 0.6 243 12.7
2005-04-22 08:28:17 51°9.265 2°37.126 336.5 0.5 244 12.8
2005-04-22 08:28:21 51°9.265 2°37.125 336.1 0.5 242 12.8
2005-04-22 08:28:27 51°9.264 2°37.124 335.6 0.5 243 12.7
2005-04-22 08:28:32 51°9.264 2°37.123 335.2 0.5 243 12.7
2005-04-22 08:28:36 51°9.263 2°37.122 334.8 0.5 245 12.7
2005-04-22 08:28:42 51°9.263 2°37.121 334.3 0.5 245 12.8
2005-04-22 08:28:47 51°9.263 2°37.12 333.8 0.5 241 12.8
2005-04-22 08:28:51 51°9.262 2°37.119 333.4 0.5 244 12.8
2005-04-22 08:28:57 51°9.262 2°37.118 332.7 0.5 245 12.7
2005-04-22 08:29:02 51°9.261 2°37.117 332.3 0.5 245 12.7
2005-04-22 08:29:07 51°9.261 2°37.116 331.8 0.5 243 12.8
2005-04-22 08:29:12 51°9.261 2°37.115 331.4 0.5 240 12.8
2005-04-22 08:29:18 51°9.26 2°37.114 331 0.5 248 12.8
2005-04-22 08:29:21 51°9.26 2°37.113 330.6 0.5 244 12.8
2005-04-22 08:29:27 51°9.26 2°37.112 330.1 0.5 244 12.8
2005-04-22 08:29:32 51°9.26 2°37.11 329.7 0.5 244 12.8
2005-04-22 08:29:37 51°9.259 2°37.11 329.5 0.6 241 12.8
2005-04-22 08:29:42 51°9.259 2°37.109 329 0.6 240 12.8
2005-04-22 08:29:47 51°9.259 2°37.108 328.7 0.5 244 12.7
2005-04-22 08:29:51 51°9.258 2°37.107 328.3 0.5 244 12.8
2005-04-22 08:29:56 51°9.258 2°37.106 328 0.6 243 12.7
2005-04-22 08:30:01 51°9.258 2°37.105 327.4 0.6 243 12.7
2005-04-22 08:30:07 51°9.257 2°37.104 327 0.5 245 12.8
2005-04-22 08:30:11 51°9.257 2°37.103 326.8 0.5 241 12.8
2005-04-22 08:30:17 51°9.257 2°37.102 326.6 0.5 243 12.7
2005-04-22 08:30:22 51°9.256 2°37.101 326.1 0.5 244 12.8
2005-04-22 08:30:27 51°9.256 2°37.1 325.7 0.5 244 12.8
2005-04-22 08:30:31 51°9.256 2°37.099 325.4 0.5 245 12.8
2005-04-22 08:30:37 51°9.255 2°37.098 325.1 0.5 245 12.8
2005-04-22 08:30:41 51°9.255 2°37.097 324.7 0.5 236 12.8
2005-04-22 08:30:47 51°9.255 2°37.096 324.3 0.5 237 12.8
2005-04-22 08:30:51 51°9.254 2°37.095 324 0.5 237 12.8
2005-04-22 08:30:57 51°9.254 2°37.095 323.7 0.5 244 12.8
2005-04-22 08:31:02 51°9.253 2°37.094 323.5 0.5 240 12.8
2005-04-22 08:31:07 51°9.253 2°37.092 323.1 0.5 240 12.8
2005-04-22 08:31:11 51°9.253 2°37.092 322.9 0.5 237 12.8
2005-04-22 08:31:17 51°9.252 2°37.091 322.4 0.6 242 12.7
2005-04-22 08:31:22 51°9.252 2°37.089 322 0.4 241 12.8
2005-04-22 08:31:27 51°9.252 2°37.088 321.9 0.5 242 12.8
2005-04-22 08:31:32 51°9.251 2°37.087 321.8 0.5 243 12.8
2005-04-22 08:31:36 51°9.251 2°37.087 321.5 0.6 241 12.8
2005-04-22 08:31:43 51°9.251 2°37.085 321.2 0.6 241 12.8
2005-04-22 08:31:47 51°9.25 2°37.084 320.9 0.6 241 12.9
2005-04-22 08:31:52 51°9.25 2°37.083 320.8 0.4 242 12.9
2005-04-22 08:31:57 51°9.25 2°37.083 320.7 0.4 251 12.8
2005-04-22 08:32:02 51°9.249 2°37.082 320.2 0.4 249 12.9
2005-04-22 08:32:07 51°9.249 2°37.081 320 0.4 243 12.8
2005-04-22 08:32:12 51°9.249 2°37.08 319.9 0.4 240 12.7
2005-04-22 08:32:17 51°9.249 2°37.079 319.7 0.4 243 12.8
2005-04-22 08:32:20 51°9.248 2°37.078 319.3 0.5 236 12.9
2005-04-22 08:32:27 51°9.248 2°37.077 319.3 0.6 238 12.9
2005-04-22 08:32:32 51°9.247 2°37.076 319.3 0.5 244 12.9
2005-04-22 08:32:37 51°9.247 2°37.075 319 0.5 244 12.8
2005-04-22 08:32:41 51°9.247 2°37.074 318.7 0.5 241 12.9
2005-04-22 08:32:47 51°9.246 2°37.073 318.6 0.6 241 12.9
2005-04-22 08:32:51 51°9.246 2°37.072 318.5 0.6 241 12.9
2005-04-22 08:32:57 51°9.246 2°37.071 318.3 0.5 237 12.9
2005-04-22 08:33:01 51°9.246 2°37.07 318.2 0.6 234 12.9
2005-04-22 08:33:07 51°9.245 2°37.069 318.1 0.6 236 12.8
2005-04-22 08:33:11 51°9.245 2°37.068 317.9 0.5 236 12.9
2005-04-22 08:33:18 51°9.244 2°37.067 317.8 0.5 238 12.9
2005-04-22 08:33:21 51°9.244 2°37.067 317.8 0.4 240 12.9
2005-04-22 08:33:27 51°9.244 2°37.065 317.6 0.4 240 12.9
2005-04-22 08:33:31 51°9.243 2°37.064 317.3 0.4 240 12.8
2005-04-22 08:33:36 51°9.243 2°37.064 317.4 0.5 243 12.9
2005-04-22 08:33:42 51°9.243 2°37.063 317.3 0.5 241 12.9
2005-04-22 08:33:47 51°9.242 2°37.062 317.2 0.5 241 12.9
2005-04-22 08:33:51 51°9.242 2°37.061 317.2 0.4 235 12.8
2005-04-22 08:33:57 51°9.242 2°37.06 317.1 0.4 235 12.9
2005-04-22 08:34:02 51°9.241 2°37.06 317 0.4 235 12.8
2005-04-22 08:34:07 51°9.241 2°37.058 316.8 0.5 247 12.9
2005-04-22 08:34:12 51°9.241 2°37.058 316.8 0.5 247 12.8
2005-04-22 08:34:17 51°9.241 2°37.057 316.6 0.4 241 12.9
2005-04-22 08:34:22 51°9.24 2°37.056 316.5 0.4 241 12.9
2005-04-22 08:34:27 51°9.24 2°37.055 316.5 0.4 241 12.9
2005-04-22 08:34:31 51°9.24 2°37.055 316.5 0.5 239 12.9
2005-04-22 08:34:36 51°9.239 2°37.054 316.5 0.4 233 12.9
2005-04-22 08:34:41 51°9.239 2°37.053 316.7 0.4 233 12.9
2005-04-22 08:34:47 51°9.238 2°37.052 316.6 0.5 235 12.9
2005-04-22 08:34:52 51°9.238 2°37.051 316.7 0.5 235 12.8
2005-04-22 08:34:57 51°9.238 2°37.051 316.8 0.3 242 12.9
2005-04-22 08:35:01 51°9.238 2°37.05 316.8 0.4 236 12.8
2005-04-22 08:35:07 51°9.237 2°37.049 316.7 0.5 236 12.8
2005-04-22 08:35:11 51°9.237 2°37.049 316.9 0.4 233 12.8
2005-04-22 08:35:17 51°9.237 2°37.048 316.7 0.4 230 12.9
2005-04-22 08:35:21 51°9.236 2°37.047 316.7 0.4 233 12.9
2005-04-22 08:35:27 51°9.236 2°37.046 316.7 0.4 239 12.9
2005-04-22 08:35:32 51°9.236 2°37.046 316.6 0.4 239 12.9
2005-04-22 08:35:37 51°9.235 2°37.045 316.4 0.4 233 12.9
2005-04-22 08:35:42 51°9.235 2°37.044 316.4 0.4 236 12.9
2005-04-22 08:35:47 51°9.234 2°37.043 316.4 0.4 238 12.9
2005-04-22 08:35:51 51°9.234 2°37.042 316.3 0.5 234 12.8
2005-04-22 08:35:57 51°9.234 2°37.042 316.3 0.4 236 12.9
2005-04-22 08:36:02 51°9.234 2°37.041 316.3 0.4 239 12.9
2005-04-22 08:36:07 51°9.233 2°37.041 316.3 0.3 234 12.9
2005-04-22 08:36:11 51°9.233 2°37.04 316.1 0.4 235 12.9
2005-04-22 08:36:17 51°9.232 2°37.039 316.2 0.4 234 12.9
2005-04-22 08:36:20 51°9.232 2°37.039 316.1 0.4 239 12.9
2005-04-22 08:36:27 51°9.232 2°37.038 316.1 0.4 239 12.9
2005-04-22 08:36:31 51°9.232 2°37.037 316.1 0.4 236 12.9
2005-04-22 08:36:37 51°9.231 2°37.037 316.2 0.3 239 12.8
2005-04-22 08:36:41 51°9.231 2°37.036 316.1 0.5 236 12.8
2005-04-22 08:36:47 51°9.231 2°37.036 315.9 0.4 229 12.9
2005-04-22 08:36:51 51°9.23 2°37.035 315.9 0.5 234 12.9
2005-04-22 08:36:57 51°9.23 2°37.034 316.1 0.5 234 12.9
2005-04-22 08:37:01 51°9.23 2°37.034 316 0.4 229 12.8
2005-04-22 08:37:07 51°9.229 2°37.033 315.7 0.4 229 12.9
2005-04-22 08:37:12 51°9.229 2°37.032 315.7 0.5 236 12.9
2005-04-22 08:37:17 51°9.228 2°37.031 315.5 0.5 236 12.8
2005-04-22 08:37:21 51°9.228 2°37.03 315.4 0.4 232 12.8
2005-04-22 08:37:27 51°9.228 2°37.03 315.2 0.4 230 12.9
2005-04-22 08:37:31 51°9.227 2°37.029 315 0.4 231 12.9
2005-04-22 08:37:37 51°9.227 2°37.028 314.8 0.4 231 12.9
2005-04-22 08:37:42 51°9.227 2°37.028 314.5 0.4 235 12.9
2005-04-22 08:37:47 51°9.226 2°37.027 314.4 0.4 229 12.9
2005-04-22 08:37:51 51°9.226 2°37.027 314.3 0.4 230 12.9
2005-04-22 08:37:58 51°9.226 2°37.026 314 0.4 231 12.9
2005-04-22 08:38:02 51°9.225 2°37.026 313.6 0.4 232 12.9
2005-04-22 08:38:07 51°9.225 2°37.025 313.5 0.4 234 12.9
2005-04-22 08:38:11 51°9.224 2°37.024 313.4 0.4 230 12.9
2005-04-22 08:38:18 51°9.224 2°37.024 313.2 0.4 230 12.9
2005-04-22 08:38:22 51°9.224 2°37.023 313 0.4 230 12.9
2005-04-22 08:38:27 51°9.224 2°37.023 312.6 0.4 235 12.9
2005-04-22 08:38:32 51°9.223 2°37.022 312.2 0.4 236 12.9
2005-04-22 08:38:37 51°9.223 2°37.022 311.8 0.4 232 12.9
2005-04-22 08:38:41 51°9.223 2°37.021 311.6 0.4 228 12.9
2005-04-22 08:38:47 51°9.222 2°37.02 311.3 0.4 228 12.9
2005-04-22 08:38:51 51°9.222 2°37.019 311.1 0.4 232 12.9
2005-04-22 08:38:57 51°9.222 2°37.019 310.5 0.4 232 12.9
2005-04-22 08:39:01 51°9.222 2°37.018 310.3 0.4 230 12.9
2005-04-22 08:39:07 51°9.221 2°37.017 310 0.4 231 12.9
2005-04-22 08:39:12 51°9.221 2°37.016 309.7 0.4 234 12.9
2005-04-22 08:39:18 51°9.221 2°37.016 309.5 0.4 235 12.9
2005-04-22 08:39:22 51°9.22 2°37.015 309.2 0.3 229 12.9
2005-04-22 08:39:27 51°9.22 2°37.015 309 0.3 237 12.9
2005-04-22 08:39:31 51°9.22 2°37.014 308.9 0.3 237 12.9
2005-04-22 08:39:36 51°9.22 2°37.014 308.6 0.3 237 12.9
2005-04-22 08:39:41 51°9.219 2°37.013 308.4 0.3 233 12.9
2005-04-22 08:39:47 51°9.219 2°37.012 308.1 0.3 233 12.9
2005-04-22 08:39:51 51°9.219 2°37.012 308.1 0.3 233 12.9
2005-04-22 08:39:57 51°9.218 2°37.011 307.7 0.3 233 12.9
2005-04-22 08:40:02 51°9.218 2°37.011 307.5 0.4 236 12.8
2005-04-22 08:40:07 51°9.218 2°37.01 307.5 0.4 231 12.8
2005-04-22 08:40:12 51°9.217 2°37.009 307.2 0.4 233 12.8
2005-04-22 08:40:17 51°9.217 2°37.009 307 0.4 235 12.8
2005-04-22 08:40:22 51°9.217 2°37.008 306.7 0.3 243 12.8
2005-04-22 08:40:27 51°9.217 2°37.008 306.4 0.4 234 12.8
2005-04-22 08:40:32 51°9.217 2°37.007 306.2 0.3 238 12.9
2005-04-22 08:40:37 51°9.216 2°37.007 306 0.4 241 12.9
2005-04-22 08:40:42 51°9.216 2°37.006 305.9 0.3 245 12.9
2005-04-22 08:40:47 51°9.216 2°37.005 305.7 0.4 252 12.9
2005-04-22 08:40:51 51°9.216 2°37.004 305.8 0.4 260 12.8
2005-04-22 08:40:57 51°9.216 2°37.003 305.9 0.4 258 12.9
2005-04-22 08:41:01 51°9.216 2°37.002 306.2 0.5 265 12.9
2005-04-22 08:41:07 51°9.216 2°37 306.2 0.5 274 12.9
2005-04-22 08:41:12 51°9.216 2°36.999 306.8 0.6 285 12.9
2005-04-22 08:41:17 51°9.217 2°36.997 307.3 0.9 280 12.9
2005-04-22 08:41:21 51°9.217 2°36.995 308.1 0.9 280 13
2005-04-22 08:41:27 51°9.218 2°36.992 309.8 1.2 294 12.9
2005-04-22 08:41:32 51°9.219 2°36.99 311 1.3 294 13
2005-04-22 08:41:36 51°9.22 2°36.987 312.5 1.3 294 13
2005-04-22 08:41:42 51°9.221 2°36.984 313.8 1.3 294 13
2005-04-22 08:41:47 51°9.222 2°36.981 315.5 1.5 304 13.1
2005-04-22 08:41:51 51°9.223 2°36.979 317.1 1.5 304 13.1
2005-04-22 08:41:57 51°9.225 2°36.977 319.3 1.6 311 13.2
2005-04-22 08:42:02 51°9.227 2°36.974 321.3 1.7 315 13.2
2005-04-22 08:42:07 51°9.229 2°36.971 322.8 1.8 313 13.2
2005-04-22 08:42:12 51°9.23 2°36.968 324.8 1.8 318 13.3
2005-04-22 08:42:17 51°9.232 2°36.966 327.2 1.8 318 13.2
2005-04-22 08:42:22 51°9.234 2°36.963 328.6 1.9 322 13.3
2005-04-22 08:42:27 51°9.237 2°36.961 330.8 1.9 322 13.3
2005-04-22 08:42:32 51°9.239 2°36.958 332.3 1.9 322 13.4
2005-04-22 08:42:38 51°9.241 2°36.956 334 2 328 13.4
2005-04-22 08:42:41 51°9.243 2°36.954 335.9 2.1 330 13.5
2005-04-22 08:42:47 51°9.247 2°36.951 337.5 2.2 331 13.6
2005-04-22 08:42:51 51°9.249 2°36.949 339.3 2.1 333 13.6
2005-04-22 08:42:57 51°9.252 2°36.947 341.1 2.2 334 13.7
2005-04-22 08:43:01 51°9.254 2°36.945 342.9 2.3 336 13.7
2005-04-22 08:43:07 51°9.258 2°36.943 344.6 2.3 337 13.7
2005-04-22 08:43:11 51°9.26 2°36.942 346.2 2.3 337 13.8
2005-04-22 08:43:17 51°9.264 2°36.94 347.9 2.3 340 13.9
2005-04-22 08:43:22 51°9.267 2°36.939 349.8 2.3 340 13.9
2005-04-22 08:43:27 51°9.27 2°36.938 351.5 2.4 344 14
2005-04-22 08:43:32 51°9.273 2°36.936 353.4 2.4 347 14.1
2005-04-22 08:43:37 51°9.276 2°36.936 355.4 2.4 349 14.1
2005-04-22 08:43:41 51°9.279 2°36.935 357.2 2.4 351 14.2
2005-04-22 08:43:47 51°9.284 2°36.935 359 2.4 353 14.2
2005-04-22 08:43:51 51°9.286 2°36.934 0.8 2.4 356 14.2
2005-04-22 08:43:57 51°9.29 2°36.934 2.9 2.4 356 14.3
2005-04-22 08:44:02 51°9.293 2°36.934 4.2 2.5 359 14.3